Time;durP1;ratioP1;P1;durP2;ratioP2;P2;SDS_P1;SDS_P2;PMS_P1;PMS_P2;Temp;Humidity;BMP_temperature;BMP_pressure;BME280_temperature;BME280_humidity;BME280_pressure;Samples;Min_cycle;Max_cycle;Signal;HPM_P1;HPM_P2
2023/12/08 00:02:09;;;;;;;28.45;18.33;;;;;;;2.61;100.00;99926.09;5027820;28;20498;-74
2023/12/08 00:04:34;;;;;;;27.33;18.27;;;;;;;2.62;100.00;99938.22;5028846;28;20037;-75
2023/12/08 00:07:00;;;;;;;29.90;18.15;;;;;;;2.66;100.00;99934.50;5007476;28;20128;-75
2023/12/08 00:09:26;;;;;;;28.38;18.05;;;;;;;2.71;100.00;99937.69;5023733;28;20026;-74
2023/12/08 00:11:51;;;;;;;31.17;18.45;;;;;;;2.71;100.00;99932.50;5026830;28;20055;-75
2023/12/08 00:14:17;;;;;;;26.70;17.35;;;;;;;2.75;100.00;99934.03;5028239;28;20083;-72
2023/12/08 00:16:43;;;;;;;30.02;18.38;;;;;;;2.77;100.00;99932.16;5028010;28;20045;-75
2023/12/08 00:19:10;;;;;;;26.95;17.70;;;;;;;2.76;100.00;99922.69;5023207;28;20040;-75
2023/12/08 00:21:35;;;;;;;28.52;17.95;;;;;;;2.74;100.00;99924.53;5021914;28;20041;-75
2023/12/08 00:24:01;;;;;;;29.45;18.63;;;;;;;2.65;100.00;99926.81;5028342;28;20091;-75
2023/12/08 00:26:26;;;;;;;23.98;17.05;;;;;;;2.76;100.00;99917.47;5026116;28;20033;-75
2023/12/08 00:28:52;;;;;;;30.55;17.48;;;;;;;2.70;100.00;99922.19;5023724;28;20101;-75
2023/12/08 00:31:17;;;;;;;29.52;17.98;;;;;;;2.76;100.00;99909.66;5027171;28;20041;-74
2023/12/08 00:33:43;;;;;;;28.08;17.40;;;;;;;2.80;100.00;99910.31;5004646;28;20034;-75
2023/12/08 00:36:13;;;;;;;25.33;17.40;;;;;;;2.82;100.00;99911.91;5025189;28;20057;-74
2023/12/08 00:38:38;;;;;;;25.65;17.70;;;;;;;2.82;100.00;99904.09;5023771;28;20117;-75
2023/12/08 00:41:04;;;;;;;31.77;18.77;;;;;;;2.79;100.00;99904.25;5025808;28;20029;-75
2023/12/08 00:43:29;;;;;;;37.00;19.02;;;;;;;2.73;100.00;99909.81;5027761;28;20041;-76
2023/12/08 00:45:54;;;;;;;27.10;18.05;;;;;;;2.64;100.00;99909.47;5030933;28;20405;-73
2023/12/08 00:48:20;;;;;;;27.25;18.85;;;;;;;2.53;100.00;99917.91;5028472;28;20029;-74
2023/12/08 00:50:45;;;;;;;30.83;18.30;;;;;;;2.40;100.00;99912.50;5026412;28;20385;-73
2023/12/08 00:53:11;;;;;;;27.65;17.95;;;;;;;2.34;100.00;99917.19;5024877;28;20037;-74
2023/12/08 00:55:36;;;;;;;25.40;18.33;;;;;;;2.32;100.00;99919.03;5009455;28;20140;-75
2023/12/08 00:58:02;;;;;;;28.13;17.88;;;;;;;2.33;100.00;99915.50;5022202;28;20541;-75
2023/12/08 01:00:27;;;;;;;28.80;17.58;;;;;;;2.25;100.00;99913.31;5028456;28;20030;-75
2023/12/08 01:02:52;;;;;;;29.73;17.58;;;;;;;2.24;100.00;99910.81;5027659;28;20140;-74
2023/12/08 01:05:18;;;;;;;24.23;16.33;;;;;;;2.22;100.00;99913.47;5025698;28;20120;-73
2023/12/08 01:07:44;;;;;;;22.63;15.55;;;;;;;2.37;100.00;99917.00;5024555;28;20125;-74
2023/12/08 01:10:09;;;;;;;27.40;17.80;;;;;;;2.47;100.00;99920.81;5029812;28;20388;-74
2023/12/08 01:12:35;;;;;;;25.38;16.88;;;;;;;2.48;100.00;99910.31;5024958;28;20038;-74
2023/12/08 01:15:01;;;;;;;25.73;16.33;;;;;;;2.57;100.00;99908.13;5031861;28;20108;-75
2023/12/08 01:17:27;;;;;;;27.67;17.45;;;;;;;2.60;100.00;99911.41;5005459;28;20032;-75
2023/12/08 01:19:53;;;;;;;24.08;16.92;;;;;;;2.58;100.00;99904.59;5028577;28;20104;-75
2023/12/08 01:22:18;;;;;;;26.13;18.00;;;;;;;2.49;100.00;99905.94;5030964;28;20038;-74
2023/12/08 01:24:45;;;;;;;26.10;17.02;;;;;;;2.51;100.00;99913.69;5028507;28;20569;-75
2023/12/08 01:27:10;;;;;;;27.05;16.70;;;;;;;2.43;100.00;99906.28;5027566;28;20036;-74
2023/12/08 01:29:36;;;;;;;23.30;17.27;;;;;;;2.36;100.00;99894.50;5011715;28;20029;-74
2023/12/08 01:32:01;;;;;;;29.42;16.92;;;;;;;2.34;100.00;99896.38;5024481;28;20030;-77
2023/12/08 01:34:26;;;;;;;25.90;17.75;;;;;;;2.37;100.00;99898.78;5030657;28;20548;-75
2023/12/08 01:36:52;;;;;;;26.15;17.75;;;;;;;2.44;100.00;99897.53;5027189;28;20091;-75
2023/12/08 01:39:17;;;;;;;27.92;17.55;;;;;;;2.48;100.00;99893.84;5027896;28;20087;-76
2023/12/08 01:41:43;;;;;;;24.05;17.25;;;;;;;2.48;100.00;99899.03;5033977;28;20120;-75
2023/12/08 01:44:08;;;;;;;27.63;17.45;;;;;;;2.45;100.00;99888.81;5028361;28;20041;-74
2023/12/08 01:46:35;;;;;;;28.42;17.80;;;;;;;2.46;100.00;99891.34;5023940;28;20068;-75
2023/12/08 01:49:01;;;;;;;28.27;17.88;;;;;;;2.47;100.00;99892.19;5030334;28;20045;-73
2023/12/08 01:51:27;;;;;;;31.45;18.60;;;;;;;2.45;100.00;99886.19;5006616;28;20022;-74
2023/12/08 01:53:53;;;;;;;28.20;17.58;;;;;;;2.36;100.00;99874.50;4996740;28;20043;-75
2023/12/08 01:56:20;;;;;;;30.98;18.25;;;;;;;2.31;100.00;99880.88;5027342;28;20104;-75
2023/12/08 01:58:45;;;;;;;28.85;18.63;;;;;;;2.23;100.00;99883.09;5005007;28;20038;-74
2023/12/08 02:01:11;;;;;;;27.23;17.85;;;;;;;2.21;100.00;99874.50;5025635;28;20044;-74
2023/12/08 02:03:39;;;;;;;29.45;18.42;;;;;;;2.13;100.00;99871.47;5026807;28;20037;-77
2023/12/08 02:06:05;;;;;;;30.10;18.58;;;;;;;2.01;100.00;99866.00;5023666;28;20034;-76
2023/12/08 02:08:31;;;;;;;27.88;19.17;;;;;;;1.93;100.00;99868.19;5030832;28;20044;-74
2023/12/08 02:10:57;;;;;;;31.70;19.67;;;;;;;1.89;100.00;99863.19;5024808;28;20438;-72
2023/12/08 02:13:23;;;;;;;28.27;18.58;;;;;;;1.86;100.00;99864.22;5027752;28;20036;-73
2023/12/08 02:15:57;;;;;;;28.75;19.33;;;;;;;1.94;100.00;99876.81;5010773;28;20698;-75
2023/12/08 02:18:23;;;;;;;33.95;20.00;;;;;;;2.03;100.00;99878.94;5028638;28;20082;-74
2023/12/08 02:20:49;;;;;;;27.05;18.80;;;;;;;2.14;100.00;99874.00;5026952;28;20037;-74
2023/12/08 02:23:14;;;;;;;24.65;17.42;;;;;;;2.25;100.00;99870.81;5028299;28;20075;-74
2023/12/08 02:25:40;;;;;;;27.35;19.55;;;;;;;2.30;100.00;99879.19;5005481;28;20398;-74
2023/12/08 02:28:06;;;;;;;30.77;18.90;;;;;;;2.41;100.00;99871.69;5029590;28;20430;-74
2023/12/08 02:30:32;;;;;;;24.88;17.55;;;;;;;2.49;100.00;99877.28;5025496;28;20061;-73
2023/12/08 02:33:08;;;;;;;26.85;19.52;;;;;;;2.53;100.00;99864.94;5026427;28;20033;-73
2023/12/08 02:35:38;;;;;;;28.30;20.40;;;;;;;2.57;100.00;99866.44;5027090;28;20041;-73
2023/12/08 02:38:06;;;;;;;28.08;19.92;;;;;;;2.56;100.00;99860.41;5032799;28;20386;-75
2023/12/08 02:40:31;;;;;;;28.17;19.25;;;;;;;2.47;100.00;99858.31;5005174;28;20060;-74
2023/12/08 02:42:58;;;;;;;29.92;19.42;;;;;;;2.41;100.00;99853.44;5028460;28;20470;-74
2023/12/08 02:45:23;;;;;;;27.30;18.88;;;;;;;2.37;100.00;99838.88;5008449;28;20078;-75
2023/12/08 02:47:49;;;;;;;36.80;19.55;;;;;;;2.35;100.00;99845.97;5029389;28;20036;-75
2023/12/08 02:50:14;;;;;;;33.03;21.15;;;;;;;2.41;100.00;99840.41;5025269;28;20034;-75
2023/12/08 02:52:40;;;;;;;29.60;19.10;;;;;;;2.49;100.00;99848.63;5007999;28;20049;-74
2023/12/08 02:55:06;;;;;;;30.70;19.65;;;;;;;2.50;100.00;99839.91;5026190;28;20033;-74
2023/12/08 02:57:31;;;;;;;29.77;19.90;;;;;;;2.53;100.00;99838.91;5026442;28;20095;-75
2023/12/08 02:59:57;;;;;;;28.73;19.63;;;;;;;2.54;100.00;99825.78;5022904;28;20025;-74
2023/12/08 03:02:22;;;;;;;27.48;18.98;;;;;;;2.53;100.00;99826.72;5029215;28;20107;-75
2023/12/08 03:04:48;;;;;;;28.73;20.10;;;;;;;2.55;100.00;99817.03;5024969;28;20057;-74
2023/12/08 03:07:13;;;;;;;29.60;19.38;;;;;;;2.57;100.00;99820.41;5008291;28;20032;-75
2023/12/08 03:09:38;;;;;;;26.38;17.98;;;;;;;2.60;100.00;99821.97;5027320;28;20096;-76
2023/12/08 03:12:04;;;;;;;31.10;19.77;;;;;;;2.62;100.00;99822.75;5027107;28;20030;-74
2023/12/08 03:14:30;;;;;;;28.80;18.95;;;;;;;2.60;100.00;99820.22;5023251;28;20037;-73
2023/12/08 03:16:55;;;;;;;28.20;19.13;;;;;;;2.64;100.00;99826.94;5031033;28;20033;-73
2023/12/08 03:19:21;;;;;;;31.10;20.13;;;;;;;2.61;100.00;99827.09;5030504;28;20039;-75
2023/12/08 03:21:46;;;;;;;27.90;18.98;;;;;;;2.54;100.00;99828.38;5026966;28;20073;-72
2023/12/08 03:24:12;;;;;;;23.92;17.73;;;;;;;2.63;100.00;99830.47;5025400;28;20041;-75
2023/12/08 03:26:38;;;;;;;31.08;18.85;;;;;;;2.67;100.00;99824.16;5025352;28;20044;-74
2023/12/08 03:29:03;;;;;;;28.73;19.02;;;;;;;2.61;100.00;99821.91;5024954;28;20477;-73
2023/12/08 03:31:32;;;;;;;29.42;19.33;;;;;;;2.42;100.00;99821.22;5027654;28;20025;-75
2023/12/08 03:33:58;;;;;;;28.88;18.42;;;;;;;2.32;100.00;99825.28;5022629;28;20017;-74
2023/12/08 03:36:23;;;;;;;27.10;18.00;;;;;;;2.13;100.00;99820.25;5030378;28;20033;-73
2023/12/08 03:38:49;;;;;;;24.02;18.35;;;;;;;2.06;100.00;99819.72;5024909;28;20152;-73
2023/12/08 03:41:14;;;;;;;27.73;18.58;;;;;;;2.04;100.00;99826.78;5025953;28;20032;-74
2023/12/08 03:43:40;;;;;;;32.58;18.75;;;;;;;1.95;100.00;99819.47;5025790;28;20109;-74
2023/12/08 03:46:06;;;;;;;32.33;19.10;;;;;;;1.85;100.00;99813.09;5025156;28;20033;-75
2023/12/08 03:48:32;;;;;;;34.30;19.20;;;;;;;1.75;100.00;99808.44;5023847;28;20067;-75
2023/12/08 03:50:58;;;;;;;30.95;19.67;;;;;;;1.74;100.00;99815.41;5026921;28;20117;-74
2023/12/08 03:53:24;;;;;;;22.40;17.65;;;;;;;1.77;100.00;99812.63;5029578;28;20100;-75
2023/12/08 03:55:49;;;;;;;25.98;19.20;;;;;;;1.86;100.00;99811.31;5028183;28;20480;-75
2023/12/08 03:58:15;;;;;;;26.15;18.42;;;;;;;1.95;100.00;99816.88;5022708;28;20038;-74
2023/12/08 04:00:41;;;;;;;28.67;19.48;;;;;;;1.98;100.00;99821.91;5007409;28;20144;-75
2023/12/08 04:03:06;;;;;;;34.55;20.58;;;;;;;2.03;100.00;99819.06;5025060;28;20022;-76
2023/12/08 04:05:31;;;;;;;33.47;20.02;;;;;;;2.05;100.00;99823.28;5026487;28;20037;-75
2023/12/08 04:07:57;;;;;;;28.60;18.80;;;;;;;2.09;100.00;99821.34;5024136;28;20065;-75
2023/12/08 04:10:22;;;;;;;29.83;18.80;;;;;;;2.13;100.00;99819.41;5024646;28;20044;-74
2023/12/08 04:12:48;;;;;;;27.30;19.02;;;;;;;2.18;100.00;99822.63;5010972;28;20123;-75
2023/12/08 04:15:14;;;;;;;28.92;19.05;;;;;;;2.23;100.00;99821.44;5025326;28;20033;-74
2023/12/08 04:17:39;;;;;;;29.00;19.08;;;;;;;2.20;100.00;99831.16;5024914;28;20417;-76
2023/12/08 04:20:05;;;;;;;27.83;19.02;;;;;;;2.18;100.00;99825.22;5021749;28;20030;-75
2023/12/08 04:22:31;;;;;;;30.05;20.05;;;;;;;2.19;100.00;99819.06;5027295;28;20046;-75
2023/12/08 04:24:57;;;;;;;30.95;19.90;;;;;;;2.17;100.00;99815.72;5025766;28;20116;-74
2023/12/08 04:27:22;;;;;;;25.52;18.92;;;;;;;2.15;100.00;99820.16;5021575;28;20141;-73
2023/12/08 04:29:48;;;;;;;27.02;18.73;;;;;;;2.17;100.00;99826.13;5028116;28;20034;-74
2023/12/08 04:32:13;;;;;;;28.70;19.08;;;;;;;2.18;100.00;99827.81;5028811;28;20499;-74
2023/12/08 04:34:38;;;;;;;29.52;20.05;;;;;;;2.22;100.00;99834.53;5025393;28;20131;-74
2023/12/08 04:37:04;;;;;;;26.05;19.48;;;;;;;2.27;100.00;99827.31;5025069;28;20040;-74
2023/12/08 04:39:30;;;;;;;33.78;19.90;;;;;;;2.30;100.00;99821.91;5029741;28;20026;-74
2023/12/08 04:41:55;;;;;;;30.25;20.90;;;;;;;2.34;100.00;99820.84;5024210;28;20116;-75
2023/12/08 04:44:20;;;;;;;28.92;19.02;;;;;;;2.37;100.00;99823.25;5029775;28;20100;-75
2023/12/08 04:46:46;;;;;;;30.85;19.38;;;;;;;2.31;100.00;99831.41;5028338;28;20493;-75
2023/12/08 04:49:12;;;;;;;26.95;19.38;;;;;;;2.29;100.00;99830.69;5030354;28;20167;-75
2023/12/08 04:51:41;;;;;;;26.63;19.60;;;;;;;2.30;100.00;99829.72;5025118;28;20040;-75
2023/12/08 04:54:06;;;;;;;30.88;20.13;;;;;;;2.31;100.00;99844.44;5013436;28;20088;-75
2023/12/08 04:56:32;;;;;;;30.55;19.60;;;;;;;2.32;100.00;99841.75;5027670;28;20097;-75
2023/12/08 04:58:57;;;;;;;27.05;18.90;;;;;;;2.33;100.00;99842.59;5028462;28;20095;-76
2023/12/08 05:01:23;;;;;;;27.98;19.88;;;;;;;2.32;100.00;99853.94;5026469;28;20088;-74
2023/12/08 05:03:48;;;;;;;28.70;19.60;;;;;;;2.26;100.00;99854.25;5032101;28;20111;-74
2023/12/08 05:06:15;;;;;;;27.05;19.35;;;;;;;2.24;100.00;99848.31;5024122;28;20127;-74
2023/12/08 05:08:40;;;;;;;28.02;19.25;;;;;;;2.23;100.00;99846.63;5030954;28;20065;-75
2023/12/08 05:11:07;;;;;;;26.70;18.85;;;;;;;2.24;100.00;99846.53;5025812;28;20172;-75
2023/12/08 05:13:33;;;;;;;28.83;20.63;;;;;;;2.24;100.00;99840.50;5028535;28;20038;-74
2023/12/08 05:15:58;;;;;;;28.60;20.67;;;;;;;2.23;100.00;99846.63;5028201;28;20049;-75
2023/12/08 05:18:24;;;;;;;27.42;19.52;;;;;;;2.23;100.00;99846.63;5031888;28;20033;-73
2023/12/08 05:20:49;;;;;;;28.83;19.98;;;;;;;2.21;100.00;99844.09;5026202;28;20482;-74
2023/12/08 05:23:18;;;;;;;30.20;20.42;;;;;;;2.21;100.00;99843.25;5031656;28;20038;-74
2023/12/08 05:25:44;;;;;;;34.17;20.25;;;;;;;2.19;100.00;99839.88;5000377;28;20033;-75
2023/12/08 05:28:09;;;;;;;27.95;19.35;;;;;;;2.17;100.00;99845.19;5033016;28;20033;-74
2023/12/08 05:30:35;;;;;;;28.73;20.50;;;;;;;2.20;100.00;99846.78;4995219;28;20512;-76
2023/12/08 05:33:02;;;;;;;25.67;19.25;;;;;;;2.22;100.00;99845.78;5033782;28;20025;-74
2023/12/08 05:35:28;;;;;;;29.88;20.67;;;;;;;2.24;100.00;99840.50;5030118;28;20067;-74
2023/12/08 05:37:53;;;;;;;25.77;19.60;;;;;;;2.28;100.00;99842.00;5029312;28;20061;-75
2023/12/08 05:40:19;;;;;;;22.95;17.10;;;;;;;2.29;100.00;99846.31;5026456;28;20036;-75
2023/12/08 05:42:44;;;;;;;27.58;18.90;;;;;;;2.34;100.00;99844.28;5030142;28;20474;-75
2023/12/08 05:45:10;;;;;;;24.58;17.35;;;;;;;2.39;100.00;99847.47;5024543;28;20129;-74
2023/12/08 05:47:35;;;;;;;26.60;18.63;;;;;;;2.44;100.00;99848.06;5030831;28;20374;-74
2023/12/08 05:50:01;;;;;;;22.75;17.13;;;;;;;2.51;100.00;99849.41;5028580;28;20056;-75
2023/12/08 05:52:26;;;;;;;22.50;15.90;;;;;;;2.57;100.00;99856.88;5028008;28;20045;-72
2023/12/08 05:54:52;;;;;;;23.58;17.08;;;;;;;2.62;100.00;99857.44;5022865;28;20119;-73
2023/12/08 05:57:17;;;;;;;23.95;17.08;;;;;;;2.67;100.00;99860.63;5025364;28;20033;-74
2023/12/08 05:59:42;;;;;;;20.42;15.73;;;;;;;2.71;100.00;99869.16;5007833;28;20482;-75
2023/12/08 06:02:08;;;;;;;19.55;16.30;;;;;;;2.73;100.00;99867.28;5026362;28;20576;-75
2023/12/08 06:04:33;;;;;;;23.90;17.20;;;;;;;2.75;100.00;99866.28;5031217;28;20167;-76
2023/12/08 06:06:59;;;;;;;21.85;16.70;;;;;;;2.77;100.00;99867.00;5027318;28;20042;-75
2023/12/08 06:09:24;;;;;;;24.73;17.27;;;;;;;2.80;100.00;99869.44;5027938;28;20068;-77
2023/12/08 06:11:50;;;;;;;27.38;18.77;;;;;;;2.83;100.00;99869.28;5030801;28;20109;-75
2023/12/08 06:14:15;;;;;;;22.60;17.92;;;;;;;2.86;100.00;99869.09;5022537;28;20040;-75
2023/12/08 06:16:41;;;;;;;24.15;18.30;;;;;;;2.92;100.00;99877.50;5028873;28;20029;-74
2023/12/08 06:19:07;;;;;;;22.23;17.58;;;;;;;2.95;100.00;99882.53;5023603;28;20054;-75
2023/12/08 06:21:32;;;;;;;22.55;17.15;;;;;;;2.97;100.00;99878.09;5025894;28;20144;-75
2023/12/08 06:23:58;;;;;;;23.98;18.25;;;;;;;2.97;100.00;99880.69;5029201;28;20147;-74
2023/12/08 06:26:26;;;;;;;21.27;17.25;;;;;;;2.98;100.00;99882.38;5030440;28;20063;-73
2023/12/08 06:28:52;;;;;;;24.35;17.67;;;;;;;2.99;100.00;99884.91;5024720;28;20033;-72
2023/12/08 06:31:17;;;;;;;26.38;18.52;;;;;;;3.00;100.00;99880.53;5027757;28;20082;-74
2023/12/08 06:33:42;;;;;;;27.90;19.23;;;;;;;2.97;100.00;99885.91;5022959;28;20084;-75
2023/12/08 06:36:08;;;;;;;25.48;19.40;;;;;;;2.99;100.00;99884.06;5028697;28;20052;-75
2023/12/08 06:38:37;;;;;;;27.17;19.38;;;;;;;3.01;100.00;99887.41;5026220;28;20048;-75
2023/12/08 06:41:03;;;;;;;23.70;18.60;;;;;;;2.98;100.00;99885.81;5029499;28;20509;-76
2023/12/08 06:43:28;;;;;;;24.77;19.20;;;;;;;2.97;100.00;99880.69;5025890;28;20030;-74
2023/12/08 06:45:54;;;;;;;25.63;19.45;;;;;;;2.97;100.00;99875.47;5026302;28;20036;-74
2023/12/08 06:48:21;;;;;;;30.48;20.42;;;;;;;3.03;100.00;99875.13;5024190;28;20128;-75
2023/12/08 06:50:47;;;;;;;28.67;19.85;;;;;;;2.92;100.00;99883.56;5009896;28;20477;-75
2023/12/08 06:53:13;;;;;;;27.70;19.95;;;;;;;3.03;100.00;99880.34;5022092;28;20159;-75
2023/12/08 06:55:38;;;;;;;26.42;20.30;;;;;;;3.08;100.00;99884.38;5032043;28;20029;-76
2023/12/08 06:58:04;;;;;;;26.17;20.00;;;;;;;3.10;100.00;99881.69;5022980;28;20099;-74
2023/12/08 07:00:29;;;;;;;28.88;20.08;;;;;;;3.11;100.00;99885.97;5026029;28;20087;-74
2023/12/08 07:02:55;;;;;;;25.85;19.27;;;;;;;3.11;100.00;99888.56;5025976;28;20038;-74
2023/12/08 07:05:20;;;;;;;25.15;19.40;;;;;;;3.10;100.00;99886.88;5026507;28;20029;-74
2023/12/08 07:07:47;;;;;;;22.83;18.13;;;;;;;3.08;100.00;99883.53;5024301;28;20469;-74
2023/12/08 07:10:14;;;;;;;30.13;20.58;;;;;;;3.03;100.00;99885.56;5029973;28;20037;-76
2023/12/08 07:12:40;;;;;;;28.17;20.92;;;;;;;2.95;100.00;99887.75;5022422;28;20037;-74
2023/12/08 07:15:06;;;;;;;26.38;20.25;;;;;;;2.91;100.00;99891.47;5011238;28;20029;-76
2023/12/08 07:17:31;;;;;;;29.77;19.80;;;;;;;2.92;100.00;99887.94;5024138;28;20034;-75
2023/12/08 07:19:56;;;;;;;29.88;19.52;;;;;;;2.91;100.00;99886.25;5026444;28;20417;-74
2023/12/08 07:22:22;;;;;;;32.47;21.10;;;;;;;2.85;100.00;99882.22;5025656;28;20054;-76
2023/12/08 07:24:47;;;;;;;28.25;20.23;;;;;;;2.82;100.00;99885.84;5248156;22;20049;-75
2023/12/08 07:27:13;;;;;;;26.75;19.83;;;;;;;2.84;100.00;99886.59;5065763;28;20040;-74
2023/12/08 07:29:39;;;;;;;33.20;21.35;;;;;;;2.92;100.00;99880.13;5067253;28;20028;-74
2023/12/08 07:32:04;;;;;;;28.52;19.98;;;;;;;2.94;100.00;99876.50;5070459;28;20107;-74
2023/12/08 07:34:30;;;;;;;31.38;20.75;;;;;;;2.96;100.00;99874.63;5067421;28;20086;-74
2023/12/08 07:36:55;;;;;;;32.28;19.90;;;;;;;2.97;100.00;99883.28;5064875;28;20127;-76
2023/12/08 07:39:21;;;;;;;30.63;20.77;;;;;;;2.98;100.00;99878.00;5069158;28;20029;-73
2023/12/08 07:41:46;;;;;;;29.63;21.45;;;;;;;2.98;100.00;99887.59;5064776;28;20061;-75
2023/12/08 07:44:11;;;;;;;28.10;19.85;;;;;;;3.00;100.00;99877.94;5067380;28;20090;-74
2023/12/08 07:46:37;;;;;;;29.80;20.20;;;;;;;3.01;100.00;99877.81;5063500;28;20081;-73
2023/12/08 07:49:03;;;;;;;29.08;21.25;;;;;;;3.04;100.00;99876.81;5067337;28;20035;-75
2023/12/08 07:51:29;;;;;;;33.83;22.60;;;;;;;3.05;100.00;99868.91;5068486;28;20028;-73
2023/12/08 07:53:54;;;;;;;28.00;21.48;;;;;;;3.06;100.00;99864.53;5046946;28;20089;-74
2023/12/08 07:56:22;;;;;;;27.17;20.95;;;;;;;3.09;100.00;99872.16;5066550;28;20033;-75
2023/12/08 07:58:48;;;;;;;33.03;22.50;;;;;;;3.13;100.00;99871.06;5065733;28;20047;-74
2023/12/08 08:01:13;;;;;;;31.58;22.13;;;;;;;2.89;100.00;99878.50;5068362;28;20037;-76
2023/12/08 08:03:39;;;;;;;28.70;21.17;;;;;;;2.72;100.00;99887.28;5046776;28;20044;-75
2023/12/08 08:06:04;;;;;;;28.13;21.42;;;;;;;2.88;100.00;99882.91;5065120;28;20033;-74
2023/12/08 08:08:30;;;;;;;29.83;20.88;;;;;;;2.93;100.00;99887.00;5067008;28;20041;-74
2023/12/08 08:10:56;;;;;;;27.27;21.17;;;;;;;2.93;100.00;99876.59;5064396;28;20047;-75
2023/12/08 08:13:22;;;;;;;30.77;21.23;;;;;;;2.92;100.00;99878.34;5066603;28;20473;-73
2023/12/08 08:15:48;;;;;;;31.58;21.98;;;;;;;2.91;100.00;99875.81;5068176;28;20047;-74
2023/12/08 08:18:13;;;;;;;30.92;23.38;;;;;;;2.80;100.00;99886.84;5070806;28;20342;-74
2023/12/08 08:20:39;;;;;;;39.40;23.42;;;;;;;2.60;100.00;99882.75;5069961;28;20533;-74
2023/12/08 08:23:04;;;;;;;35.85;24.25;;;;;;;2.44;100.00;99887.13;5070416;28;20037;-75
2023/12/08 08:25:31;;;;;;;36.65;23.60;;;;;;;2.44;100.00;99884.50;5058679;28;20041;-75
2023/12/08 08:27:57;;;;;;;33.60;23.90;;;;;;;2.56;100.00;99886.44;5060586;28;20024;-74
2023/12/08 08:30:22;;;;;;;35.38;25.08;;;;;;;2.66;100.00;99877.19;5058039;28;20041;-75
2023/12/08 08:32:48;;;;;;;36.45;24.27;;;;;;;2.66;100.00;99877.19;5061676;28;20037;-74
2023/12/08 08:35:14;;;;;;;39.05;24.40;;;;;;;2.67;100.00;99872.81;5035714;28;20101;-75
2023/12/08 08:37:39;;;;;;;33.78;24.75;;;;;;;2.66;100.00;99876.34;5061200;28;20028;-74
2023/12/08 08:40:05;;;;;;;34.15;24.02;;;;;;;2.61;100.00;99876.59;5057129;28;20087;-75
2023/12/08 08:42:31;;;;;;;37.60;24.20;;;;;;;2.60;100.00;99867.09;5061287;28;20068;-77
2023/12/08 08:44:57;;;;;;;35.58;23.95;;;;;;;2.64;100.00;99863.44;5056890;28;20104;-76
2023/12/08 08:47:24;;;;;;;34.00;25.10;;;;;;;2.72;100.00;99869.03;5059707;28;20555;-76
2023/12/08 08:49:49;;;;;;;38.28;24.13;;;;;;;2.78;100.00;99867.84;5058126;28;20043;-75
2023/12/08 08:52:15;;;;;;;32.22;23.77;;;;;;;2.85;100.00;99877.00;5060562;28;20032;-76
2023/12/08 08:54:40;;;;;;;34.78;23.63;;;;;;;2.88;100.00;99872.47;5058209;28;20028;-75
2023/12/08 08:57:06;;;;;;;32.33;23.85;;;;;;;2.94;100.00;99880.88;5059213;28;20387;-75
2023/12/08 08:59:32;;;;;;;30.58;23.73;;;;;;;3.00;100.00;99885.75;5056490;28;20481;-76
2023/12/08 09:01:57;;;;;;;37.75;25.10;;;;;;;3.03;100.00;99877.72;5058977;28;20114;-74
2023/12/08 09:04:22;;;;;;;33.83;24.10;;;;;;;3.00;100.00;99880.53;5038411;28;20036;-74
2023/12/08 09:06:48;;;;;;;31.52;23.65;;;;;;;2.91;100.00;99887.09;5059245;28;20121;-74
2023/12/08 09:09:13;;;;;;;32.38;24.52;;;;;;;2.86;100.00;99884.75;5057816;28;20073;-73
2023/12/08 09:11:39;;;;;;;34.90;26.45;;;;;;;2.79;100.00;99879.97;5060445;28;20036;-76
2023/12/08 09:14:04;;;;;;;38.10;26.63;;;;;;;2.88;100.00;99879.47;5056955;28;20075;-74
2023/12/08 09:16:31;;;;;;;36.83;26.27;;;;;;;2.92;100.00;99882.72;5060003;28;20106;-74
2023/12/08 09:18:56;;;;;;;38.35;27.83;;;;;;;2.81;100.00;99878.97;5059709;28;20029;-74
2023/12/08 09:21:22;;;;;;;42.33;26.05;;;;;;;2.87;100.00;99876.00;5058925;28;20446;-74
2023/12/08 09:23:47;;;;;;;35.28;25.02;;;;;;;2.74;100.00;99877.63;5062237;28;20044;-73
2023/12/08 09:26:13;;;;;;;37.95;24.95;;;;;;;2.73;100.00;99873.31;5071888;28;20056;-76
2023/12/08 09:28:38;;;;;;;41.55;26.35;;;;;;;2.74;100.00;99875.00;5065537;28;20040;-74
2023/12/08 09:31:04;;;;;;;33.92;24.42;;;;;;;2.86;100.00;99863.91;5071504;28;20032;-75
2023/12/08 09:33:29;;;;;;;38.53;25.83;;;;;;;2.62;100.00;99874.84;5069168;28;20025;-74
2023/12/08 09:35:55;;;;;;;34.05;23.42;;;;;;;2.79;100.00;99877.34;5068097;28;20024;-75
2023/12/08 09:38:21;;;;;;;36.00;25.52;;;;;;;2.82;100.00;99872.81;5069233;28;20552;-74
2023/12/08 09:40:46;;;;;;;35.00;25.60;;;;;;;2.87;100.00;99869.94;5072131;28;20162;-76
2023/12/08 09:43:28;;;;;;;33.05;23.63;;;;;;;2.83;100.00;99873.63;5066254;28;20029;-75
2023/12/08 09:45:54;;;;;;;29.80;22.45;;;;;;;2.81;100.00;99865.94;5068534;28;20032;-75
2023/12/08 09:48:23;;;;;;;31.17;22.63;;;;;;;2.83;100.00;99864.06;5067286;28;20499;-75
2023/12/08 09:50:50;;;;;;;33.28;23.70;;;;;;;2.94;100.00;99866.06;5069779;28;20556;-74
2023/12/08 09:53:16;;;;;;;33.50;24.02;;;;;;;2.95;100.00;99861.69;5060820;28;20112;-75
2023/12/08 09:55:43;;;;;;;32.85;23.55;;;;;;;2.74;100.00;99859.38;5048685;28;20495;-74
2023/12/08 09:58:10;;;;;;;34.65;23.77;;;;;;;2.54;100.00;99849.22;5069140;28;20040;-75
2023/12/08 10:00:35;;;;;;;31.48;24.05;;;;;;;2.56;100.00;99849.97;5071696;28;20546;-75
2023/12/08 10:03:01;;;;;;;34.00;24.42;;;;;;;2.52;100.00;99848.47;5067966;28;20044;-74
2023/12/08 10:05:27;;;;;;;31.58;24.25;;;;;;;2.62;100.00;99847.03;5067782;28;20122;-73
2023/12/08 10:07:54;;;;;;;35.67;24.20;;;;;;;2.68;100.00;99849.28;5071844;28;20031;-76
2023/12/08 10:10:21;;;;;;;30.58;22.63;;;;;;;2.68;100.00;99833.66;5067637;28;20041;-74
2023/12/08 10:12:47;;;;;;;30.73;22.98;;;;;;;2.64;100.00;99836.53;5069719;28;20033;-76
2023/12/08 10:15:16;;;;;;;31.25;22.30;;;;;;;2.69;100.00;99830.13;5066679;28;20464;-74
2023/12/08 10:17:49;;;;;;;33.33;23.40;;;;;;;2.73;100.00;99826.41;5069285;28;20036;-75
2023/12/08 10:20:15;;;;;;;30.98;23.42;;;;;;;2.78;100.00;99829.59;5068405;28;20114;-75
2023/12/08 10:22:52;;;;;;;31.02;22.67;;;;;;;2.82;100.00;99820.69;5068849;28;20025;-75
2023/12/08 10:25:23;;;;;;;28.50;21.67;;;;;;;2.86;100.00;99827.41;5059331;28;20056;-75
2023/12/08 10:27:50;;;;;;;29.83;22.13;;;;;;;2.90;100.00;99822.84;5058006;28;20029;-74
2023/12/08 10:30:17;;;;;;;28.95;21.52;;;;;;;2.84;100.00;99826.66;5056937;28;20380;-75
2023/12/08 10:32:43;;;;;;;29.40;21.92;;;;;;;2.86;100.00;99822.19;5059153;28;20044;-75
2023/12/08 10:35:11;;;;;;;30.45;23.00;;;;;;;2.96;100.00;99806.00;5037781;28;20040;-74
2023/12/08 10:37:39;;;;;;;29.52;22.70;;;;;;;3.05;100.00;99805.50;5033106;28;20048;-75
2023/12/08 10:40:07;;;;;;;32.65;23.35;;;;;;;3.00;100.00;99803.16;5057199;28;20106;-75
2023/12/08 10:42:32;;;;;;;32.78;24.48;;;;;;;3.14;100.00;99794.50;5056347;28;20071;-73
2023/12/08 10:45:00;;;;;;;42.42;28.00;;;;;;;3.19;100.00;99798.53;5055397;28;20025;-74
2023/12/08 10:47:26;;;;;;;34.97;25.30;;;;;;;3.27;100.00;99785.03;5059042;28;20024;-75
2023/12/08 10:49:54;;;;;;;32.75;24.52;;;;;;;3.28;100.00;99786.72;5055782;28;20033;-76
2023/12/08 10:52:21;;;;;;;31.65;23.10;;;;;;;3.32;100.00;99776.94;5060684;28;20028;-75
2023/12/08 10:54:49;;;;;;;30.20;22.35;;;;;;;3.34;100.00;99775.94;5051816;28;20037;-74
2023/12/08 10:57:17;;;;;;;29.13;22.58;;;;;;;3.39;100.00;99779.09;5055149;28;20123;-74
2023/12/08 10:59:46;;;;;;;27.42;20.88;;;;;;;3.32;100.00;99771.72;5051631;28;20036;-75
2023/12/08 11:02:20;;;;;;;30.23;21.02;;;;;;;3.33;100.00;99774.25;5056010;28;20098;-74
2023/12/08 11:04:53;;;;;;;28.15;20.33;;;;;;;3.32;100.00;99783.00;5058438;28;20115;-75
2023/12/08 11:07:27;;;;;;;34.08;21.05;;;;;;;3.40;100.00;99780.78;5051679;28;20047;-76
2023/12/08 11:09:56;;;;;;;27.05;20.52;;;;;;;3.33;100.00;99784.69;5052151;28;20040;-75
2023/12/08 11:12:26;;;;;;;29.05;20.52;;;;;;;3.36;100.00;99779.25;5056506;28;20033;-74